sensor_id;sensor_type;location;lat;lon;timestamp;temperature;humidity
1259;DHT22;619;51.472;6.628;2023-06-10T00:00:52;26.80;53.70
1259;DHT22;619;51.472;6.628;2023-06-10T00:03:23;26.80;53.80
1259;DHT22;619;51.472;6.628;2023-06-10T00:05:51;26.80;53.80
1259;DHT22;619;51.472;6.628;2023-06-10T00:08:17;26.80;53.90
1259;DHT22;619;51.472;6.628;2023-06-10T00:10:45;26.80;54.00
1259;DHT22;619;51.472;6.628;2023-06-10T00:13:10;26.80;54.10
1259;DHT22;619;51.472;6.628;2023-06-10T00:15:39;26.70;54.20
1259;DHT22;619;51.472;6.628;2023-06-10T00:18:09;26.70;54.20
1259;DHT22;619;51.472;6.628;2023-06-10T00:20:39;26.60;54.30
1259;DHT22;619;51.472;6.628;2023-06-10T00:23:05;26.60;54.40
1259;DHT22;619;51.472;6.628;2023-06-10T00:25:37;26.60;54.50
1259;DHT22;619;51.472;6.628;2023-06-10T00:28:03;26.60;54.50
1259;DHT22;619;51.472;6.628;2023-06-10T00:30:28;26.60;54.80
1259;DHT22;619;51.472;6.628;2023-06-10T00:32:54;26.50;55.00
1259;DHT22;619;51.472;6.628;2023-06-10T00:35:22;26.50;55.30
1259;DHT22;619;51.472;6.628;2023-06-10T00:37:50;26.50;55.70
1259;DHT22;619;51.472;6.628;2023-06-10T00:40:20;26.50;55.70
1259;DHT22;619;51.472;6.628;2023-06-10T00:42:48;26.40;55.90
1259;DHT22;619;51.472;6.628;2023-06-10T00:45:16;26.40;56.00
1259;DHT22;619;51.472;6.628;2023-06-10T00:47:42;26.30;56.10
1259;DHT22;619;51.472;6.628;2023-06-10T00:50:10;26.30;56.20
1259;DHT22;619;51.472;6.628;2023-06-10T00:52:38;26.20;56.30
1259;DHT22;619;51.472;6.628;2023-06-10T00:55:04;26.10;56.40
1259;DHT22;619;51.472;6.628;2023-06-10T00:57:33;26.10;56.60
1259;DHT22;619;51.472;6.628;2023-06-10T01:00:01;26.10;56.60
1259;DHT22;619;51.472;6.628;2023-06-10T01:02:27;26.00;56.80
1259;DHT22;619;51.472;6.628;2023-06-10T01:04:55;26.00;56.90
1259;DHT22;619;51.472;6.628;2023-06-10T01:07:33;26.00;57.00
1259;DHT22;619;51.472;6.628;2023-06-10T01:10:19;25.90;57.00
1259;DHT22;619;51.472;6.628;2023-06-10T01:13:14;25.90;57.10
1259;DHT22;619;51.472;6.628;2023-06-10T01:15:43;25.80;57.10
1259;DHT22;619;51.472;6.628;2023-06-10T01:18:09;25.80;57.30
1259;DHT22;619;51.472;6.628;2023-06-10T01:20:41;25.70;57.30
1259;DHT22;619;51.472;6.628;2023-06-10T01:23:17;25.70;57.50
1259;DHT22;619;51.472;6.628;2023-06-10T01:26:07;25.70;57.60
1259;DHT22;619;51.472;6.628;2023-06-10T01:28:54;25.60;57.70
1259;DHT22;619;51.472;6.628;2023-06-10T01:31:51;25.60;57.80
1259;DHT22;619;51.472;6.628;2023-06-10T01:34:23;25.60;58.00
1259;DHT22;619;51.472;6.628;2023-06-10T01:36:53;25.50;58.00
1259;DHT22;619;51.472;6.628;2023-06-10T01:39:22;25.50;58.10
1259;DHT22;619;51.472;6.628;2023-06-10T01:41:52;25.50;58.30
1259;DHT22;619;51.472;6.628;2023-06-10T01:44:20;25.40;58.30
1259;DHT22;619;51.472;6.628;2023-06-10T01:46:48;25.40;58.50
1259;DHT22;619;51.472;6.628;2023-06-10T01:49:14;25.40;58.70
1259;DHT22;619;51.472;6.628;2023-06-10T01:51:44;25.30;58.80
1259;DHT22;619;51.472;6.628;2023-06-10T01:54:09;25.30;59.00
1259;DHT22;619;51.472;6.628;2023-06-10T01:56:35;25.20;59.00
1259;DHT22;619;51.472;6.628;2023-06-10T01:59:00;25.20;59.20
1259;DHT22;619;51.472;6.628;2023-06-10T02:01:26;25.20;59.40
1259;DHT22;619;51.472;6.628;2023-06-10T02:03:54;25.10;59.40
1259;DHT22;619;51.472;6.628;2023-06-10T02:06:22;25.10;59.60
1259;DHT22;619;51.472;6.628;2023-06-10T02:08:48;25.00;59.70
1259;DHT22;619;51.472;6.628;2023-06-10T02:11:15;25.00;59.90
1259;DHT22;619;51.472;6.628;2023-06-10T02:13:43;24.90;60.00
1259;DHT22;619;51.472;6.628;2023-06-10T02:16:12;24.90;60.30
1259;DHT22;619;51.472;6.628;2023-06-10T02:18:42;24.90;61.30
1259;DHT22;619;51.472;6.628;2023-06-10T02:21:11;24.90;61.00
1259;DHT22;619;51.472;6.628;2023-06-10T02:23:39;24.80;61.10
1259;DHT22;619;51.472;6.628;2023-06-10T02:26:05;24.80;61.20
1259;DHT22;619;51.472;6.628;2023-06-10T02:28:33;24.80;61.50
1259;DHT22;619;51.472;6.628;2023-06-10T02:30:59;24.70;61.60
1259;DHT22;619;51.472;6.628;2023-06-10T02:33:29;24.70;61.90
1259;DHT22;619;51.472;6.628;2023-06-10T02:35:55;24.60;62.10
1259;DHT22;619;51.472;6.628;2023-06-10T02:38:21;24.70;62.50
1259;DHT22;619;51.472;6.628;2023-06-10T02:40:47;24.70;62.60
1259;DHT22;619;51.472;6.628;2023-06-10T02:43:15;24.60;62.60
1259;DHT22;619;51.472;6.628;2023-06-10T02:45:43;24.60;62.80
1259;DHT22;619;51.472;6.628;2023-06-10T02:48:10;24.60;63.00
1259;DHT22;619;51.472;6.628;2023-06-10T02:50:36;24.50;63.00
1259;DHT22;619;51.472;6.628;2023-06-10T02:53:07;24.60;63.30
1259;DHT22;619;51.472;6.628;2023-06-10T02:55:35;24.50;63.20
1259;DHT22;619;51.472;6.628;2023-06-10T02:58:04;24.50;63.30
1259;DHT22;619;51.472;6.628;2023-06-10T03:00:30;24.50;63.50
1259;DHT22;619;51.472;6.628;2023-06-10T03:02:59;24.50;63.70
1259;DHT22;619;51.472;6.628;2023-06-10T03:05:32;24.40;63.70
1259;DHT22;619;51.472;6.628;2023-06-10T03:07:58;24.40;63.90
1259;DHT22;619;51.472;6.628;2023-06-10T03:10:26;24.40;64.00
1259;DHT22;619;51.472;6.628;2023-06-10T03:12:54;24.40;64.20
1259;DHT22;619;51.472;6.628;2023-06-10T03:15:20;24.30;64.40
1259;DHT22;619;51.472;6.628;2023-06-10T03:17:48;24.30;64.60
1259;DHT22;619;51.472;6.628;2023-06-10T03:20:14;24.30;65.00
1259;DHT22;619;51.472;6.628;2023-06-10T03:22:43;24.20;65.00
1259;DHT22;619;51.472;6.628;2023-06-10T03:25:11;24.20;65.10
1259;DHT22;619;51.472;6.628;2023-06-10T03:27:41;24.20;65.20
1259;DHT22;619;51.472;6.628;2023-06-10T03:30:07;24.10;65.30
1259;DHT22;619;51.472;6.628;2023-06-10T03:32:35;24.10;65.40
1259;DHT22;619;51.472;6.628;2023-06-10T03:35:02;24.10;65.60
1259;DHT22;619;51.472;6.628;2023-06-10T03:37:27;24.10;65.90
1259;DHT22;619;51.472;6.628;2023-06-10T03:39:53;24.10;66.00
1259;DHT22;619;51.472;6.628;2023-06-10T03:42:20;24.00;66.00
1259;DHT22;619;51.472;6.628;2023-06-10T03:44:46;24.00;66.10
1259;DHT22;619;51.472;6.628;2023-06-10T03:47:14;24.00;66.30
1259;DHT22;619;51.472;6.628;2023-06-10T03:49:39;24.00;66.30
1259;DHT22;619;51.472;6.628;2023-06-10T03:52:06;24.00;66.30
1259;DHT22;619;51.472;6.628;2023-06-10T03:54:34;23.90;66.30
1259;DHT22;619;51.472;6.628;2023-06-10T03:57:00;23.90;66.50
1259;DHT22;619;51.472;6.628;2023-06-10T03:59:26;23.90;66.50
1259;DHT22;619;51.472;6.628;2023-06-10T04:01:52;23.90;66.50
1259;DHT22;619;51.472;6.628;2023-06-10T04:04:17;23.90;66.40
1259;DHT22;619;51.472;6.628;2023-06-10T04:06:48;23.90;66.50
1259;DHT22;619;51.472;6.628;2023-06-10T04:09:14;23.90;66.30
1259;DHT22;619;51.472;6.628;2023-06-10T04:11:39;23.90;66.20
1259;DHT22;619;51.472;6.628;2023-06-10T04:14:07;23.90;66.00
1259;DHT22;619;51.472;6.628;2023-06-10T04:16:34;23.90;65.90
1259;DHT22;619;51.472;6.628;2023-06-10T04:19:00;23.90;65.90
1259;DHT22;619;51.472;6.628;2023-06-10T04:21:28;24.00;65.70
1259;DHT22;619;51.472;6.628;2023-06-10T04:23:54;24.00;65.60
1259;DHT22;619;51.472;6.628;2023-06-10T04:26:19;24.00;65.50
1259;DHT22;619;51.472;6.628;2023-06-10T04:28:47;24.00;65.10
1259;DHT22;619;51.472;6.628;2023-06-10T04:31:15;24.00;65.10
1259;DHT22;619;51.472;6.628;2023-06-10T04:33:41;24.00;65.00
1259;DHT22;619;51.472;6.628;2023-06-10T04:36:09;24.10;65.00
1259;DHT22;619;51.472;6.628;2023-06-10T04:38:36;24.10;65.10
1259;DHT22;619;51.472;6.628;2023-06-10T04:41:02;24.20;65.10
1259;DHT22;619;51.472;6.628;2023-06-10T04:43:30;24.30;65.00
1259;DHT22;619;51.472;6.628;2023-06-10T04:45:56;24.30;64.50
1259;DHT22;619;51.472;6.628;2023-06-10T04:48:23;24.40;63.90
1259;DHT22;619;51.472;6.628;2023-06-10T04:50:52;24.40;63.00
1259;DHT22;619;51.472;6.628;2023-06-10T04:53:19;24.40;62.10
1259;DHT22;619;51.472;6.628;2023-06-10T04:55:46;24.50;62.00
1259;DHT22;619;51.472;6.628;2023-06-10T04:58:12;24.50;61.90
1259;DHT22;619;51.472;6.628;2023-06-10T05:00:37;24.60;61.80
1259;DHT22;619;51.472;6.628;2023-06-10T05:03:03;24.60;61.40
1259;DHT22;619;51.472;6.628;2023-06-10T05:05:28;24.60;61.20
1259;DHT22;619;51.472;6.628;2023-06-10T05:07:56;24.70;61.00
1259;DHT22;619;51.472;6.628;2023-06-10T05:10:22;24.80;60.60
1259;DHT22;619;51.472;6.628;2023-06-10T05:12:48;24.80;60.40
1259;DHT22;619;51.472;6.628;2023-06-10T05:15:13;24.80;60.30
1259;DHT22;619;51.472;6.628;2023-06-10T05:17:43;24.80;60.30
1259;DHT22;619;51.472;6.628;2023-06-10T05:20:10;24.90;60.70
1259;DHT22;619;51.472;6.628;2023-06-10T05:22:38;24.90;60.40
1259;DHT22;619;51.472;6.628;2023-06-10T05:25:07;25.00;60.30
1259;DHT22;619;51.472;6.628;2023-06-10T05:27:32;25.10;60.30
1259;DHT22;619;51.472;6.628;2023-06-10T05:29:58;25.10;60.20
1259;DHT22;619;51.472;6.628;2023-06-10T05:32:26;25.20;60.10
1259;DHT22;619;51.472;6.628;2023-06-10T05:34:54;25.20;59.20
1259;DHT22;619;51.472;6.628;2023-06-10T05:37:20;25.30;59.30
1259;DHT22;619;51.472;6.628;2023-06-10T05:39:46;25.30;59.30
1259;DHT22;619;51.472;6.628;2023-06-10T05:42:11;25.40;59.30
1259;DHT22;619;51.472;6.628;2023-06-10T05:44:39;25.40;59.30
1259;DHT22;619;51.472;6.628;2023-06-10T05:47:05;25.50;59.20
1259;DHT22;619;51.472;6.628;2023-06-10T05:49:33;25.60;58.80
1259;DHT22;619;51.472;6.628;2023-06-10T05:51:59;25.70;58.50
1259;DHT22;619;51.472;6.628;2023-06-10T05:54:27;25.70;58.40
1259;DHT22;619;51.472;6.628;2023-06-10T05:56:55;25.70;58.60
1259;DHT22;619;51.472;6.628;2023-06-10T05:59:21;25.80;58.20
1259;DHT22;619;51.472;6.628;2023-06-10T06:01:50;25.90;57.90
1259;DHT22;619;51.472;6.628;2023-06-10T06:04:16;25.90;57.80
1259;DHT22;619;51.472;6.628;2023-06-10T06:06:42;26.00;57.70
1259;DHT22;619;51.472;6.628;2023-06-10T06:09:10;26.00;57.20
1259;DHT22;619;51.472;6.628;2023-06-10T06:11:35;26.10;57.10
1259;DHT22;619;51.472;6.628;2023-06-10T06:14:04;26.10;57.10
1259;DHT22;619;51.472;6.628;2023-06-10T06:16:29;26.30;57.30
1259;DHT22;619;51.472;6.628;2023-06-10T06:18:55;26.30;56.80
1259;DHT22;619;51.472;6.628;2023-06-10T06:21:23;26.40;56.50
1259;DHT22;619;51.472;6.628;2023-06-10T06:23:49;26.40;56.30
1259;DHT22;619;51.472;6.628;2023-06-10T06:26:19;26.50;56.10
1259;DHT22;619;51.472;6.628;2023-06-10T06:28:45;26.60;56.00
1259;DHT22;619;51.472;6.628;2023-06-10T06:31:10;26.70;56.10
1259;DHT22;619;51.472;6.628;2023-06-10T06:33:36;26.70;55.40
1259;DHT22;619;51.472;6.628;2023-06-10T06:36:02;26.80;55.50
1259;DHT22;619;51.472;6.628;2023-06-10T06:38:32;26.90;55.30
1259;DHT22;619;51.472;6.628;2023-06-10T06:40:58;27.00;55.20
1259;DHT22;619;51.472;6.628;2023-06-10T06:43:28;27.00;55.10
1259;DHT22;619;51.472;6.628;2023-06-10T06:45:57;27.10;54.70
1259;DHT22;619;51.472;6.628;2023-06-10T06:48:23;27.20;54.90
1259;DHT22;619;51.472;6.628;2023-06-10T06:50:48;27.20;54.60
1259;DHT22;619;51.472;6.628;2023-06-10T06:53:16;27.40;54.60
1259;DHT22;619;51.472;6.628;2023-06-10T06:55:44;27.50;54.40
1259;DHT22;619;51.472;6.628;2023-06-10T06:58:10;27.50;54.00
1259;DHT22;619;51.472;6.628;2023-06-10T07:00:38;27.60;54.20
1259;DHT22;619;51.472;6.628;2023-06-10T07:03:08;27.70;53.90
1259;DHT22;619;51.472;6.628;2023-06-10T07:05:33;27.80;53.30
1259;DHT22;619;51.472;6.628;2023-06-10T07:08:01;27.80;52.60
1259;DHT22;619;51.472;6.628;2023-06-10T07:10:28;27.90;52.50
1259;DHT22;619;51.472;6.628;2023-06-10T07:12:54;27.90;52.60
1259;DHT22;619;51.472;6.628;2023-06-10T07:15:19;27.90;52.90
1259;DHT22;619;51.472;6.628;2023-06-10T07:17:48;28.00;52.60
1259;DHT22;619;51.472;6.628;2023-06-10T07:20:13;28.10;52.20
1259;DHT22;619;51.472;6.628;2023-06-10T07:22:41;28.20;52.60
1259;DHT22;619;51.472;6.628;2023-06-10T07:25:07;28.30;53.60
1259;DHT22;619;51.472;6.628;2023-06-10T07:27:35;28.40;53.40
1259;DHT22;619;51.472;6.628;2023-06-10T07:30:04;28.50;52.40
1259;DHT22;619;51.472;6.628;2023-06-10T07:32:31;28.60;51.60
1259;DHT22;619;51.472;6.628;2023-06-10T07:34:56;28.70;51.90
1259;DHT22;619;51.472;6.628;2023-06-10T07:37:22;28.80;51.60
1259;DHT22;619;51.472;6.628;2023-06-10T07:39:48;28.90;50.90
1259;DHT22;619;51.472;6.628;2023-06-10T07:42:16;28.90;50.70
1259;DHT22;619;51.472;6.628;2023-06-10T07:44:44;29.00;50.70
1259;DHT22;619;51.472;6.628;2023-06-10T07:47:10;29.10;50.60
1259;DHT22;619;51.472;6.628;2023-06-10T07:49:35;29.30;50.50
1259;DHT22;619;51.472;6.628;2023-06-10T07:52:01;29.60;50.30
1259;DHT22;619;51.472;6.628;2023-06-10T07:54:27;29.90;50.00
1259;DHT22;619;51.472;6.628;2023-06-10T07:56:52;30.10;48.70
1259;DHT22;619;51.472;6.628;2023-06-10T07:59:18;30.30;48.50
1259;DHT22;619;51.472;6.628;2023-06-10T08:01:46;30.50;48.50
1259;DHT22;619;51.472;6.628;2023-06-10T08:04:12;30.80;48.00
1259;DHT22;619;51.472;6.628;2023-06-10T08:06:38;31.00;48.30
1259;DHT22;619;51.472;6.628;2023-06-10T08:09:03;31.30;47.60
1259;DHT22;619;51.472;6.628;2023-06-10T08:11:29;31.40;47.00
1259;DHT22;619;51.472;6.628;2023-06-10T08:13:55;31.60;47.30
1259;DHT22;619;51.472;6.628;2023-06-10T08:16:20;31.80;47.10
1259;DHT22;619;51.472;6.628;2023-06-10T08:18:51;31.90;46.20
1259;DHT22;619;51.472;6.628;2023-06-10T08:21:16;31.90;46.00
1259;DHT22;619;51.472;6.628;2023-06-10T08:23:42;32.00;46.20
1259;DHT22;619;51.472;6.628;2023-06-10T08:26:09;32.00;46.30
1259;DHT22;619;51.472;6.628;2023-06-10T08:28:35;32.10;46.30
1259;DHT22;619;51.472;6.628;2023-06-10T08:31:02;32.20;46.40
1259;DHT22;619;51.472;6.628;2023-06-10T08:33:30;32.20;45.20
1259;DHT22;619;51.472;6.628;2023-06-10T08:35:56;32.20;45.50
1259;DHT22;619;51.472;6.628;2023-06-10T08:38:21;32.30;45.40
1259;DHT22;619;51.472;6.628;2023-06-10T08:40:56;32.40;45.10
1259;DHT22;619;51.472;6.628;2023-06-10T08:43:33;32.40;44.40
1259;DHT22;619;51.472;6.628;2023-06-10T08:46:01;32.40;44.50
1259;DHT22;619;51.472;6.628;2023-06-10T08:48:33;32.30;44.50
1259;DHT22;619;51.472;6.628;2023-06-10T08:51:00;32.40;44.60
1259;DHT22;619;51.472;6.628;2023-06-10T08:53:29;32.30;44.70
1259;DHT22;619;51.472;6.628;2023-06-10T08:56:01;32.40;44.80
1259;DHT22;619;51.472;6.628;2023-06-10T08:58:28;32.40;44.40
1259;DHT22;619;51.472;6.628;2023-06-10T09:00:54;32.50;45.40
1259;DHT22;619;51.472;6.628;2023-06-10T09:03:21;32.50;44.20
1259;DHT22;619;51.472;6.628;2023-06-10T09:05:48;32.50;44.20
1259;DHT22;619;51.472;6.628;2023-06-10T09:08:15;32.60;44.40
1259;DHT22;619;51.472;6.628;2023-06-10T09:10:41;32.60;44.20
1259;DHT22;619;51.472;6.628;2023-06-10T09:13:06;32.70;44.60
1259;DHT22;619;51.472;6.628;2023-06-10T09:15:32;32.80;44.90
1259;DHT22;619;51.472;6.628;2023-06-10T09:17:59;32.90;44.50
1259;DHT22;619;51.472;6.628;2023-06-10T09:20:27;33.10;44.30
1259;DHT22;619;51.472;6.628;2023-06-10T09:22:53;33.30;45.00
1259;DHT22;619;51.472;6.628;2023-06-10T09:25:35;33.40;44.20
1259;DHT22;619;51.472;6.628;2023-06-10T09:28:02;33.60;43.70
1259;DHT22;619;51.472;6.628;2023-06-10T09:30:35;33.70;43.10
1259;DHT22;619;51.472;6.628;2023-06-10T09:33:11;33.80;44.00
1259;DHT22;619;51.472;6.628;2023-06-10T09:35:47;33.90;43.50
1259;DHT22;619;51.472;6.628;2023-06-10T09:38:19;34.10;43.50
1259;DHT22;619;51.472;6.628;2023-06-10T09:40:52;34.20;43.80
1259;DHT22;619;51.472;6.628;2023-06-10T09:43:18;34.40;43.00
1259;DHT22;619;51.472;6.628;2023-06-10T09:45:44;34.60;42.70
1259;DHT22;619;51.472;6.628;2023-06-10T09:48:12;34.70;42.90
1259;DHT22;619;51.472;6.628;2023-06-10T09:50:44;34.90;42.80
1259;DHT22;619;51.472;6.628;2023-06-10T09:53:10;34.90;42.70
1259;DHT22;619;51.472;6.628;2023-06-10T09:55:41;34.90;42.90
1259;DHT22;619;51.472;6.628;2023-06-10T09:58:09;34.80;42.90
1259;DHT22;619;51.472;6.628;2023-06-10T10:00:39;34.90;43.10
1259;DHT22;619;51.472;6.628;2023-06-10T10:03:07;34.90;43.40
1259;DHT22;619;51.472;6.628;2023-06-10T10:05:33;34.90;42.90
1259;DHT22;619;51.472;6.628;2023-06-10T10:07:58;34.90;43.10
1259;DHT22;619;51.472;6.628;2023-06-10T10:10:24;34.90;43.30
1259;DHT22;619;51.472;6.628;2023-06-10T10:12:59;34.90;43.50
1259;DHT22;619;51.472;6.628;2023-06-10T10:15:29;35.00;42.80
1259;DHT22;619;51.472;6.628;2023-06-10T10:18:17;35.10;43.10
1259;DHT22;619;51.472;6.628;2023-06-10T10:20:51;35.20;42.60
1259;DHT22;619;51.472;6.628;2023-06-10T10:23:37;35.30;41.80
1259;DHT22;619;51.472;6.628;2023-06-10T10:26:07;35.30;42.70
1259;DHT22;619;51.472;6.628;2023-06-10T10:28:51;35.40;41.10
1259;DHT22;619;51.472;6.628;2023-06-10T10:31:22;35.40;40.80
1259;DHT22;619;51.472;6.628;2023-06-10T10:33:58;35.40;41.00
1259;DHT22;619;51.472;6.628;2023-06-10T10:36:27;35.40;39.70
1259;DHT22;619;51.472;6.628;2023-06-10T10:38:54;35.40;40.70
1259;DHT22;619;51.472;6.628;2023-06-10T10:41:23;35.40;40.10
1259;DHT22;619;51.472;6.628;2023-06-10T10:43:51;35.30;41.90
1259;DHT22;619;51.472;6.628;2023-06-10T10:46:20;35.40;42.00
1259;DHT22;619;51.472;6.628;2023-06-10T10:48:47;35.40;40.50
1259;DHT22;619;51.472;6.628;2023-06-10T10:51:19;35.40;41.20
1259;DHT22;619;51.472;6.628;2023-06-10T10:54:14;35.60;41.50
1259;DHT22;619;51.472;6.628;2023-06-10T10:57:11;35.60;40.30
1259;DHT22;619;51.472;6.628;2023-06-10T11:00:03;35.70;40.80
1259;DHT22;619;51.472;6.628;2023-06-10T11:02:36;35.80;38.40
1259;DHT22;619;51.472;6.628;2023-06-10T11:05:06;35.80;38.30
1259;DHT22;619;51.472;6.628;2023-06-10T11:07:33;35.80;37.10
1259;DHT22;619;51.472;6.628;2023-06-10T11:10:02;35.70;38.00
1259;DHT22;619;51.472;6.628;2023-06-10T11:12:50;35.60;38.40
1259;DHT22;619;51.472;6.628;2023-06-10T11:15:26;35.70;38.70
1259;DHT22;619;51.472;6.628;2023-06-10T11:18:26;35.80;39.70
1259;DHT22;619;51.472;6.628;2023-06-10T11:21:02;35.80;37.70
1259;DHT22;619;51.472;6.628;2023-06-10T11:26:13;35.90;38.50
1259;DHT22;619;51.472;6.628;2023-06-10T11:31:19;36.00;37.40
1259;DHT22;619;51.472;6.628;2023-06-10T11:33:47;35.90;38.00
1259;DHT22;619;51.472;6.628;2023-06-10T11:36:13;36.00;38.20
1259;DHT22;619;51.472;6.628;2023-06-10T11:38:43;36.00;39.00
1259;DHT22;619;51.472;6.628;2023-06-10T11:41:14;36.20;38.80
1259;DHT22;619;51.472;6.628;2023-06-10T11:43:46;36.20;38.60
1259;DHT22;619;51.472;6.628;2023-06-10T11:46:12;36.50;38.40
1259;DHT22;619;51.472;6.628;2023-06-10T11:48:38;36.60;37.80
1259;DHT22;619;51.472;6.628;2023-06-10T11:51:09;36.80;38.00
1259;DHT22;619;51.472;6.628;2023-06-10T11:53:37;36.80;37.60
1259;DHT22;619;51.472;6.628;2023-06-10T11:56:05;36.90;37.40
1259;DHT22;619;51.472;6.628;2023-06-10T11:58:30;36.90;36.10
1259;DHT22;619;51.472;6.628;2023-06-10T12:01:01;36.80;35.80
1259;DHT22;619;51.472;6.628;2023-06-10T12:03:28;36.80;36.40
1259;DHT22;619;51.472;6.628;2023-06-10T12:06:03;36.80;35.80
1259;DHT22;619;51.472;6.628;2023-06-10T12:08:29;36.80;38.10
1259;DHT22;619;51.472;6.628;2023-06-10T12:10:57;36.90;37.30
1259;DHT22;619;51.472;6.628;2023-06-10T12:13:25;36.90;35.80
1259;DHT22;619;51.472;6.628;2023-06-10T12:15:54;37.00;36.90
1259;DHT22;619;51.472;6.628;2023-06-10T12:18:23;37.20;36.20
1259;DHT22;619;51.472;6.628;2023-06-10T12:20:49;37.30;35.70
1259;DHT22;619;51.472;6.628;2023-06-10T12:23:17;37.20;34.20
1259;DHT22;619;51.472;6.628;2023-06-10T12:25:53;37.10;36.00
1259;DHT22;619;51.472;6.628;2023-06-10T12:28:23;37.20;36.80
1259;DHT22;619;51.472;6.628;2023-06-10T12:30:49;37.30;35.80
1259;DHT22;619;51.472;6.628;2023-06-10T12:33:21;37.40;37.80
1259;DHT22;619;51.472;6.628;2023-06-10T12:35:51;37.40;37.00
1259;DHT22;619;51.472;6.628;2023-06-10T12:38:29;37.60;36.10
1259;DHT22;619;51.472;6.628;2023-06-10T12:41:01;37.60;36.60
1259;DHT22;619;51.472;6.628;2023-06-10T12:43:31;37.60;35.80
1259;DHT22;619;51.472;6.628;2023-06-10T12:46:08;37.70;35.20
1259;DHT22;619;51.472;6.628;2023-06-10T12:48:34;37.70;35.30
1259;DHT22;619;51.472;6.628;2023-06-10T12:51:03;37.70;36.40
1259;DHT22;619;51.472;6.628;2023-06-10T12:53:28;37.80;35.70
1259;DHT22;619;51.472;6.628;2023-06-10T12:55:56;37.90;34.70
1259;DHT22;619;51.472;6.628;2023-06-10T12:58:25;38.00;35.40
1259;DHT22;619;51.472;6.628;2023-06-10T13:00:53;38.00;34.90
1259;DHT22;619;51.472;6.628;2023-06-10T13:03:19;37.80;34.10
1259;DHT22;619;51.472;6.628;2023-06-10T13:05:49;37.70;34.80
1259;DHT22;619;51.472;6.628;2023-06-10T13:08:18;37.60;35.40
1259;DHT22;619;51.472;6.628;2023-06-10T13:10:43;37.60;34.50
1259;DHT22;619;51.472;6.628;2023-06-10T13:13:09;37.50;34.60
1259;DHT22;619;51.472;6.628;2023-06-10T13:15:35;37.50;35.20
1259;DHT22;619;51.472;6.628;2023-06-10T13:18:06;37.60;35.80
1259;DHT22;619;51.472;6.628;2023-06-10T13:20:32;37.60;34.50
1259;DHT22;619;51.472;6.628;2023-06-10T13:22:58;37.60;35.10
1259;DHT22;619;51.472;6.628;2023-06-10T13:25:23;37.50;35.00
1259;DHT22;619;51.472;6.628;2023-06-10T13:27:49;37.60;35.90
1259;DHT22;619;51.472;6.628;2023-06-10T13:30:17;37.70;36.20
1259;DHT22;619;51.472;6.628;2023-06-10T13:32:45;37.80;35.00
1259;DHT22;619;51.472;6.628;2023-06-10T13:35:11;37.90;35.20
1259;DHT22;619;51.472;6.628;2023-06-10T13:37:36;38.20;36.30
1259;DHT22;619;51.472;6.628;2023-06-10T13:40:05;38.40;34.10
1259;DHT22;619;51.472;6.628;2023-06-10T13:42:31;38.60;35.10
1259;DHT22;619;51.472;6.628;2023-06-10T13:44:59;38.90;33.90
1259;DHT22;619;51.472;6.628;2023-06-10T13:47:27;39.00;32.20
1259;DHT22;619;51.472;6.628;2023-06-10T13:49:55;39.20;33.00
1259;DHT22;619;51.472;6.628;2023-06-10T13:52:23;39.30;32.30
1259;DHT22;619;51.472;6.628;2023-06-10T13:54:51;39.40;32.90
1259;DHT22;619;51.472;6.628;2023-06-10T13:57:16;39.30;31.70
1259;DHT22;619;51.472;6.628;2023-06-10T13:59:45;39.10;32.60
1259;DHT22;619;51.472;6.628;2023-06-10T14:02:13;39.10;32.90
1259;DHT22;619;51.472;6.628;2023-06-10T14:04:44;39.00;34.30
1259;DHT22;619;51.472;6.628;2023-06-10T14:07:12;39.10;34.60
1259;DHT22;619;51.472;6.628;2023-06-10T14:09:40;39.30;33.90
1259;DHT22;619;51.472;6.628;2023-06-10T14:12:06;39.30;32.90
1259;DHT22;619;51.472;6.628;2023-06-10T14:14:36;39.30;32.80
1259;DHT22;619;51.472;6.628;2023-06-10T14:17:05;39.40;32.60
1259;DHT22;619;51.472;6.628;2023-06-10T14:19:31;39.50;33.90
1259;DHT22;619;51.472;6.628;2023-06-10T14:21:56;39.60;33.30
1259;DHT22;619;51.472;6.628;2023-06-10T14:24:24;39.40;31.70
1259;DHT22;619;51.472;6.628;2023-06-10T14:26:50;39.20;32.60
1259;DHT22;619;51.472;6.628;2023-06-10T14:29:18;39.00;33.10
1259;DHT22;619;51.472;6.628;2023-06-10T14:31:47;38.80;33.30
1259;DHT22;619;51.472;6.628;2023-06-10T14:34:14;38.70;33.30
1259;DHT22;619;51.472;6.628;2023-06-10T14:36:42;38.50;33.60
1259;DHT22;619;51.472;6.628;2023-06-10T14:39:13;38.40;32.80
1259;DHT22;619;51.472;6.628;2023-06-10T14:41:44;38.30;34.20
1259;DHT22;619;51.472;6.628;2023-06-10T14:44:12;38.30;33.60
1259;DHT22;619;51.472;6.628;2023-06-10T14:46:37;38.20;33.50
1259;DHT22;619;51.472;6.628;2023-06-10T14:49:07;38.00;34.30
1259;DHT22;619;51.472;6.628;2023-06-10T14:51:34;37.80;34.50
1259;DHT22;619;51.472;6.628;2023-06-10T14:53:59;37.70;35.00
1259;DHT22;619;51.472;6.628;2023-06-10T14:56:25;37.50;35.40
1259;DHT22;619;51.472;6.628;2023-06-10T14:58:55;37.40;35.10
1259;DHT22;619;51.472;6.628;2023-06-10T15:01:21;37.30;36.80
1259;DHT22;619;51.472;6.628;2023-06-10T15:03:49;37.30;35.80
1259;DHT22;619;51.472;6.628;2023-06-10T15:06:17;37.30;36.90
1259;DHT22;619;51.472;6.628;2023-06-10T15:08:48;37.30;35.70
1259;DHT22;619;51.472;6.628;2023-06-10T15:11:17;37.20;34.10
1259;DHT22;619;51.472;6.628;2023-06-10T15:13:45;37.20;35.90
1259;DHT22;619;51.472;6.628;2023-06-10T15:16:10;37.10;36.30
1259;DHT22;619;51.472;6.628;2023-06-10T15:18:36;37.20;35.90
1259;DHT22;619;51.472;6.628;2023-06-10T15:21:01;37.30;36.40
1259;DHT22;619;51.472;6.628;2023-06-10T15:23:27;37.50;36.70
1259;DHT22;619;51.472;6.628;2023-06-10T15:25:58;37.60;37.20
1259;DHT22;619;51.472;6.628;2023-06-10T15:28:25;37.60;36.50
1259;DHT22;619;51.472;6.628;2023-06-10T15:30:51;37.70;37.00
1259;DHT22;619;51.472;6.628;2023-06-10T15:33:21;37.70;36.80
1259;DHT22;619;51.472;6.628;2023-06-10T15:35:50;37.90;36.50
1259;DHT22;619;51.472;6.628;2023-06-10T15:38:17;38.10;35.00
1259;DHT22;619;51.472;6.628;2023-06-10T15:40:45;38.10;35.70
1259;DHT22;619;51.472;6.628;2023-06-10T15:43:13;38.20;35.70
1259;DHT22;619;51.472;6.628;2023-06-10T15:45:39;38.20;33.80
1259;DHT22;619;51.472;6.628;2023-06-10T15:48:07;38.10;34.50
1259;DHT22;619;51.472;6.628;2023-06-10T15:50:32;38.10;34.70
1259;DHT22;619;51.472;6.628;2023-06-10T15:53:03;38.00;33.50
1259;DHT22;619;51.472;6.628;2023-06-10T15:55:31;37.80;33.60
1259;DHT22;619;51.472;6.628;2023-06-10T15:58:01;37.80;35.10
1259;DHT22;619;51.472;6.628;2023-06-10T16:00:31;37.70;34.60
1259;DHT22;619;51.472;6.628;2023-06-10T16:02:57;37.60;36.00
1259;DHT22;619;51.472;6.628;2023-06-10T16:05:24;37.60;35.60
1259;DHT22;619;51.472;6.628;2023-06-10T16:07:53;37.60;35.30
1259;DHT22;619;51.472;6.628;2023-06-10T16:10:18;37.50;34.80
1259;DHT22;619;51.472;6.628;2023-06-10T16:12:44;37.40;34.30
1259;DHT22;619;51.472;6.628;2023-06-10T16:15:12;37.40;35.60
1259;DHT22;619;51.472;6.628;2023-06-10T16:17:40;37.30;35.90
1259;DHT22;619;51.472;6.628;2023-06-10T16:20:06;37.10;35.70
1259;DHT22;619;51.472;6.628;2023-06-10T16:22:36;37.00;36.50
1259;DHT22;619;51.472;6.628;2023-06-10T16:25:05;36.90;36.20
1259;DHT22;619;51.472;6.628;2023-06-10T16:27:30;36.80;36.50
1259;DHT22;619;51.472;6.628;2023-06-10T16:30:01;36.50;36.90